Time;durP1;ratioP1;P1;durP2;ratioP2;P2;SDS_P1;SDS_P2;PMS_P1;PMS_P2;Temp;Humidity;BMP_temperature;BMP_pressure;BME280_temperature;BME280_humidity;BME280_pressure;Samples;Min_cycle;Max_cycle;Signal;HPM_P1;HPM_P2
2021/03/17 00:00:06;;;;;;;2.75;1.60;;;10.50;99.90;;;;;;5043218;28;20041;-61
2021/03/17 00:02:32;;;;;;;5.45;1.95;;;10.50;99.90;;;;;;5044296;28;20029;-61
2021/03/17 00:04:57;;;;;;;6.15;1.58;;;10.40;99.90;;;;;;5043944;28;20037;-61
2021/03/17 00:07:23;;;;;;;4.78;1.83;;;10.50;99.90;;;;;;5039655;28;20029;-61
2021/03/17 00:09:49;;;;;;;4.47;1.85;;;10.50;99.90;;;;;;5035015;28;20163;-61
2021/03/17 00:12:14;;;;;;;3.67;1.75;;;10.50;99.90;;;;;;5041775;28;20399;-61
2021/03/17 00:14:40;;;;;;;5.30;1.98;;;10.50;99.90;;;;;;5046173;28;20092;-61
2021/03/17 00:17:06;;;;;;;3.40;1.75;;;10.40;99.90;;;;;;5040471;28;20550;-61
2021/03/17 00:19:31;;;;;;;5.65;2.10;;;10.40;99.90;;;;;;5046049;28;20024;-61
2021/03/17 00:21:57;;;;;;;7.63;2.05;;;10.40;99.90;;;;;;5040082;28;20033;-61
2021/03/17 00:24:23;;;;;;;5.43;2.20;;;10.30;99.90;;;;;;5045801;28;20528;-61
2021/03/17 00:26:49;;;;;;;4.18;1.80;;;10.10;99.90;;;;;;5040564;28;20033;-61
2021/03/17 00:29:14;;;;;;;7.57;2.67;;;10.10;99.90;;;;;;5047448;28;20147;-61
2021/03/17 00:31:40;;;;;;;6.55;2.08;;;10.00;99.90;;;;;;5041206;28;20025;-61
2021/03/17 00:34:06;;;;;;;6.93;2.30;;;10.00;99.90;;;;;;5047811;28;20134;-61
2021/03/17 00:36:31;;;;;;;7.03;2.28;;;10.00;99.90;;;;;;5037732;28;20021;-61
2021/03/17 00:38:58;;;;;;;8.10;2.40;;;9.90;99.90;;;;;;5046058;28;20047;-61
2021/03/17 00:41:23;;;;;;;6.03;2.13;;;9.80;99.90;;;;;;5037522;28;20041;-61
2021/03/17 00:43:49;;;;;;;6.65;2.25;;;9.80;99.90;;;;;;5038237;28;20032;-61
2021/03/17 00:46:14;;;;;;;5.63;2.40;;;9.90;99.90;;;;;;5037877;28;20029;-61
2021/03/17 00:48:40;;;;;;;6.72;2.50;;;9.80;99.90;;;;;;5028973;28;20033;-61
2021/03/17 00:51:06;;;;;;;8.20;2.30;;;9.80;99.90;;;;;;5036608;28;20074;-61
2021/03/17 00:53:31;;;;;;;6.20;2.20;;;9.80;99.90;;;;;;5049234;28;20078;-61
2021/03/17 00:55:57;;;;;;;5.53;2.53;;;9.80;99.90;;;;;;5036643;28;20025;-61
2021/03/17 00:58:23;;;;;;;5.32;2.05;;;9.80;99.90;;;;;;5048925;28;20025;-61
2021/03/17 01:00:48;;;;;;;3.95;2.13;;;9.70;99.90;;;;;;5042125;28;20056;-61
2021/03/17 01:03:14;;;;;;;6.47;2.30;;;9.70;99.90;;;;;;5049138;28;20040;-61
2021/03/17 01:05:39;;;;;;;5.78;2.08;;;9.50;99.90;;;;;;5036638;28;20053;-61
2021/03/17 01:08:05;;;;;;;5.43;2.53;;;9.40;99.90;;;;;;5048171;28;20382;-61
2021/03/17 01:10:36;;;;;;;4.00;1.98;;;9.40;99.90;;;;;;5038419;28;20033;-63
2021/03/17 01:13:02;;;;;;;5.43;2.08;;;9.40;99.90;;;;;;5047674;28;20013;-61
2021/03/17 01:15:28;;;;;;;4.75;2.42;;;9.50;99.90;;;;;;5039030;28;20040;-61
2021/03/17 01:17:53;;;;;;;7.95;2.35;;;9.60;99.90;;;;;;5046364;28;20144;-61
2021/03/17 01:20:22;;;;;;;5.63;2.33;;;9.40;99.90;;;;;;5039784;28;20124;-61
2021/03/17 01:22:48;;;;;;;3.80;2.25;;;9.40;99.90;;;;;;5045362;28;20033;-61
2021/03/17 01:25:19;;;;;;;4.95;2.05;;;9.30;99.90;;;;;;5043960;28;20036;-61
2021/03/17 01:27:45;;;;;;;5.95;2.30;;;9.50;99.90;;;;;;5049079;28;20455;-61
2021/03/17 01:30:11;;;;;;;5.32;2.08;;;9.30;99.90;;;;;;5045359;28;20029;-61
2021/03/17 01:32:37;;;;;;;2.92;2.30;;;9.30;99.90;;;;;;5047718;28;20765;-61
2021/03/17 01:35:13;;;;;;;2.85;1.63;;;9.30;99.90;;;;;;5046499;28;20033;-61
2021/03/17 01:37:39;;;;;;;2.83;1.80;;;9.30;99.90;;;;;;5047592;28;20397;-61
2021/03/17 01:40:06;;;;;;;3.25;2.15;;;9.40;99.90;;;;;;5047409;28;20042;-61
2021/03/17 01:42:32;;;;;;;3.95;2.17;;;9.40;99.90;;;;;;5046736;28;20036;-61
2021/03/17 01:44:57;;;;;;;4.93;2.22;;;9.20;99.90;;;;;;5037800;28;20029;-61
2021/03/17 01:47:23;;;;;;;3.72;2.10;;;9.30;99.90;;;;;;5045338;28;20100;-62
2021/03/17 01:49:49;;;;;;;5.60;2.22;;;9.30;99.90;;;;;;5048217;28;20597;-61
2021/03/17 01:52:14;;;;;;;5.90;2.22;;;9.30;99.90;;;;;;5043909;28;20100;-61
2021/03/17 01:54:40;;;;;;;3.67;2.30;;;9.20;99.90;;;;;;5048555;28;20032;-61
2021/03/17 01:57:06;;;;;;;4.03;1.73;;;9.20;99.90;;;;;;5045330;28;20029;-61
2021/03/17 01:59:33;;;;;;;3.50;2.00;;;9.10;99.90;;;;;;5048647;28;20057;-61
2021/03/17 02:02:01;;;;;;;5.97;2.42;;;9.10;99.90;;;;;;5043038;28;20421;-61
2021/03/17 02:04:26;;;;;;;7.50;2.25;;;9.10;99.90;;;;;;5047966;28;20044;-61
2021/03/17 02:06:53;;;;;;;4.28;2.20;;;9.10;99.90;;;;;;5042559;28;20037;-61
2021/03/17 02:09:19;;;;;;;5.15;2.53;;;9.10;99.90;;;;;;5048610;28;20029;-61
2021/03/17 02:12:03;;;;;;;4.55;1.90;;;9.10;99.90;;;;;;5043259;28;20029;-61
2021/03/17 02:14:48;;;;;;;5.10;2.22;;;9.10;99.90;;;;;;5048115;28;20021;-61
2021/03/17 02:17:21;;;;;;;4.93;2.05;;;9.10;99.90;;;;;;5035967;28;20025;-61
2021/03/17 02:20:09;;;;;;;5.43;2.20;;;9.20;99.90;;;;;;5047545;28;20033;-61
2021/03/17 02:22:53;;;;;;;6.40;2.25;;;9.10;99.90;;;;;;5045728;28;20021;-61
2021/03/17 02:25:31;;;;;;;3.63;2.08;;;9.10;99.90;;;;;;5043493;28;20067;-61
2021/03/17 02:28:27;;;;;;;5.85;1.80;;;9.20;99.90;;;;;;5049648;28;20028;-61
2021/03/17 02:31:22;;;;;;;3.95;1.92;;;9.10;99.90;;;;;;5039145;28;20030;-61
2021/03/17 02:33:55;;;;;;;3.45;1.92;;;9.10;99.90;;;;;;5050280;28;20025;-61
2021/03/17 02:36:45;;;;;;;2.28;1.80;;;9.10;99.90;;;;;;5036999;28;20021;-61
2021/03/17 02:39:31;;;;;;;7.10;2.47;;;9.10;99.90;;;;;;5048100;28;20024;-62
2021/03/17 02:42:01;;;;;;;5.07;2.00;;;9.10;99.90;;;;;;5038676;28;20033;-61
2021/03/17 02:44:27;;;;;;;6.25;2.30;;;9.10;99.90;;;;;;5035494;28;20018;-61
2021/03/17 02:46:55;;;;;;;6.10;2.35;;;9.10;99.90;;;;;;5042328;28;20036;-61
2021/03/17 02:49:30;;;;;;;2.80;2.33;;;9.10;99.90;;;;;;5047966;28;20021;-61
2021/03/17 02:51:59;;;;;;;4.78;2.22;;;9.10;99.90;;;;;;5041527;28;20094;-62
2021/03/17 02:54:26;;;;;;;10.27;2.50;;;9.00;99.90;;;;;;5047553;28;20013;-61
2021/03/17 02:57:08;;;;;;;3.05;2.10;;;9.10;99.90;;;;;;5042327;28;20489;-61
2021/03/17 02:59:36;;;;;;;5.18;2.60;;;9.00;99.90;;;;;;5047466;28;20040;-61
2021/03/17 03:02:03;;;;;;;5.65;2.80;;;9.00;99.90;;;;;;5042320;28;20260;-61
2021/03/17 03:04:30;;;;;;;3.00;1.90;;;9.10;99.90;;;;;;5047129;28;20026;-61
2021/03/17 03:06:58;;;;;;;3.92;2.00;;;9.00;99.90;;;;;;5041167;28;20025;-61
2021/03/17 03:09:26;;;;;;;2.85;1.83;;;9.00;99.90;;;;;;5047416;28;20100;-61
2021/03/17 03:11:53;;;;;;;6.32;2.17;;;9.10;99.90;;;;;;5042098;28;20025;-61
2021/03/17 03:14:22;;;;;;;5.28;2.28;;;9.10;99.90;;;;;;5047321;28;20468;-61
2021/03/17 03:16:49;;;;;;;6.07;2.60;;;9.10;99.90;;;;;;5042100;28;20400;-61
2021/03/17 03:19:17;;;;;;;5.47;2.60;;;9.10;99.90;;;;;;5047156;28;20017;-61
2021/03/17 03:21:43;;;;;;;5.18;2.28;;;9.10;99.90;;;;;;5041199;28;20056;-61
2021/03/17 03:24:09;;;;;;;4.32;2.65;;;9.10;99.90;;;;;;5047710;28;20013;-61
2021/03/17 03:26:35;;;;;;;4.68;2.47;;;9.10;99.90;;;;;;5042897;28;20332;-62
2021/03/17 03:29:04;;;;;;;4.35;2.42;;;9.10;99.90;;;;;;5048590;28;20057;-61
2021/03/17 03:31:29;;;;;;;2.30;2.08;;;9.10;99.90;;;;;;5040625;28;20032;-61
2021/03/17 03:33:56;;;;;;;4.75;2.40;;;9.10;99.90;;;;;;5049401;28;20021;-62
2021/03/17 03:36:24;;;;;;;4.45;2.15;;;9.20;99.90;;;;;;5038315;28;20033;-61
2021/03/17 03:38:50;;;;;;;2.60;2.40;;;9.20;99.90;;;;;;5049147;28;20021;-61
2021/03/17 03:41:16;;;;;;;4.28;2.38;;;9.20;99.90;;;;;;5037534;28;20078;-61
2021/03/17 03:43:42;;;;;;;4.55;2.47;;;9.30;99.90;;;;;;5040215;28;20021;-61
2021/03/17 03:46:07;;;;;;;5.03;2.88;;;9.20;99.90;;;;;;5037210;28;20022;-61
2021/03/17 03:48:36;;;;;;;3.75;2.42;;;9.20;99.90;;;;;;5049648;28;20029;-62
2021/03/17 03:51:02;;;;;;;7.35;2.78;;;9.10;99.90;;;;;;5036943;28;20034;-61
2021/03/17 03:53:28;;;;;;;5.65;2.65;;;9.30;99.90;;;;;;5049774;28;20049;-61
2021/03/17 03:56:06;;;;;;;4.32;2.75;;;9.20;99.90;;;;;;5037387;28;20056;-61
2021/03/17 03:58:31;;;;;;;3.67;2.95;;;9.20;99.90;;;;;;5049976;28;20385;-61
2021/03/17 04:01:08;;;;;;;2.85;2.58;;;9.20;99.90;;;;;;5037367;28;20045;-61
2021/03/17 04:03:41;;;;;;;7.18;3.28;;;9.30;99.90;;;;;;5050328;28;20044;-61
2021/03/17 04:06:10;;;;;;;3.47;2.97;;;9.30;99.90;;;;;;5036742;28;20051;-61
2021/03/17 04:08:41;;;;;;;3.67;2.50;;;9.20;99.90;;;;;;5048381;28;20100;-61
2021/03/17 04:11:08;;;;;;;4.57;2.75;;;9.30;99.90;;;;;;5041280;28;20413;-62
2021/03/17 04:13:36;;;;;;;3.25;2.67;;;9.20;99.90;;;;;;5030317;28;20030;-61
2021/03/17 04:16:02;;;;;;;4.22;2.78;;;9.20;99.90;;;;;;5036073;28;20018;-61
2021/03/17 04:18:33;;;;;;;4.53;3.03;;;9.30;99.90;;;;;;5049539;28;20067;-62
2021/03/17 04:21:03;;;;;;;4.25;3.25;;;9.30;99.90;;;;;;5036612;28;20037;-61
2021/03/17 04:23:30;;;;;;;3.65;3.35;;;9.30;99.90;;;;;;5049691;28;20056;-61
2021/03/17 04:25:56;;;;;;;5.03;3.47;;;9.30;99.90;;;;;;5037060;28;20025;-62
2021/03/17 04:28:26;;;;;;;3.78;3.47;;;9.30;99.90;;;;;;5049629;28;20055;-62
2021/03/17 04:30:55;;;;;;;5.47;3.40;;;9.20;99.90;;;;;;5036898;28;20056;-62
2021/03/17 04:33:21;;;;;;;5.82;4.18;;;9.30;99.90;;;;;;5049730;28;20032;-61
2021/03/17 04:35:49;;;;;;;6.95;4.30;;;9.40;99.90;;;;;;5036589;28;20025;-62
2021/03/17 04:38:16;;;;;;;4.60;3.92;;;9.20;99.90;;;;;;5049363;28;20179;-61
2021/03/17 04:40:43;;;;;;;5.03;4.63;;;9.20;99.90;;;;;;5037956;28;20029;-61
2021/03/17 04:43:11;;;;;;;4.70;3.97;;;9.20;99.90;;;;;;5043118;28;20028;-62
2021/03/17 04:45:37;;;;;;;7.15;4.25;;;9.30;99.90;;;;;;5034234;28;20605;-61
2021/03/17 04:48:05;;;;;;;5.50;5.00;;;9.40;99.90;;;;;;5041356;28;20024;-61
2021/03/17 04:50:31;;;;;;;8.15;4.85;;;9.30;99.90;;;;;;5033547;28;20494;-61
2021/03/17 04:52:57;;;;;;;9.18;4.82;;;9.40;99.90;;;;;;5046775;28;20035;-61
2021/03/17 04:55:24;;;;;;;4.97;4.53;;;9.40;99.90;;;;;;5040406;28;20029;-61
2021/03/17 04:57:51;;;;;;;6.57;4.50;;;9.20;99.90;;;;;;5045694;28;20035;-61
2021/03/17 05:00:21;;;;;;;4.40;4.00;;;9.20;99.90;;;;;;5040947;28;20044;-61
2021/03/17 05:03:00;;;;;;;4.60;4.20;;;9.30;99.90;;;;;;5045273;28;20117;-61
2021/03/17 05:05:29;;;;;;;6.82;4.25;;;9.30;99.90;;;;;;5039323;28;20073;-61
2021/03/17 05:07:56;;;;;;;4.70;4.40;;;9.30;99.90;;;;;;5046332;28;20021;-61
2021/03/17 05:10:24;;;;;;;6.65;4.53;;;9.40;99.90;;;;;;5040333;28;20030;-61
2021/03/17 05:12:50;;;;;;;5.90;5.05;;;9.30;99.90;;;;;;5045390;28;20092;-61
2021/03/17 05:15:17;;;;;;;5.40;4.80;;;9.30;99.90;;;;;;5041126;28;20687;-61
2021/03/17 05:17:47;;;;;;;4.82;4.43;;;9.30;99.90;;;;;;5044633;28;20105;-61
2021/03/17 05:20:15;;;;;;;5.40;4.93;;;9.30;99.90;;;;;;5043187;28;20088;-61
2021/03/17 05:22:43;;;;;;;5.25;4.85;;;9.30;99.90;;;;;;5043623;28;20060;-61
2021/03/17 05:25:11;;;;;;;6.13;5.07;;;9.40;99.90;;;;;;5041422;28;20494;-62
2021/03/17 05:27:37;;;;;;;5.97;5.35;;;9.30;99.90;;;;;;5029015;28;20148;-61
2021/03/17 05:30:09;;;;;;;5.82;5.40;;;9.30;99.90;;;;;;5034254;28;20393;-62
2021/03/17 05:32:36;;;;;;;9.07;5.45;;;9.30;99.90;;;;;;5043067;28;20025;-61
2021/03/17 05:35:07;;;;;;;6.10;5.57;;;9.40;99.90;;;;;;5043182;28;20512;-61
2021/03/17 05:37:33;;;;;;;5.95;5.45;;;9.30;99.90;;;;;;5042187;28;20404;-61
2021/03/17 05:40:00;;;;;;;9.50;5.95;;;9.40;99.90;;;;;;5029684;28;20558;-63
2021/03/17 05:42:26;;;;;;;9.77;5.85;;;9.40;99.90;;;;;;5027603;28;20164;-62
2021/03/17 05:44:53;;;;;;;6.53;6.07;;;9.40;99.90;;;;;;5028206;28;20029;-62
2021/03/17 05:47:21;;;;;;;10.80;6.18;;;9.40;99.90;;;;;;5027665;28;20049;-62
2021/03/17 05:49:49;;;;;;;7.32;6.63;;;9.40;99.90;;;;;;5029548;28;20024;-62
2021/03/17 05:52:17;;;;;;;8.80;7.22;;;9.30;99.90;;;;;;5027101;28;20025;-62
2021/03/17 05:54:44;;;;;;;7.63;6.82;;;9.30;99.90;;;;;;5029364;28;20026;-62
2021/03/17 05:57:11;;;;;;;9.70;6.72;;;9.40;99.90;;;;;;5029612;28;20476;-63
2021/03/17 05:59:38;;;;;;;6.63;5.90;;;9.40;99.90;;;;;;5029636;28;20108;-63
2021/03/17 06:02:05;;;;;;;6.93;6.32;;;9.40;99.90;;;;;;5029524;28;20125;-62
2021/03/17 06:04:32;;;;;;;8.13;6.65;;;9.30;99.90;;;;;;5029430;28;20052;-63
2021/03/17 06:07:00;;;;;;;8.27;6.60;;;9.40;99.90;;;;;;5032152;28;20452;-63
2021/03/17 06:09:27;;;;;;;8.43;6.63;;;9.30;99.90;;;;;;5029667;28;20108;-62
2021/03/17 06:11:55;;;;;;;6.55;5.97;;;9.30;99.90;;;;;;5029044;28;20021;-62
2021/03/17 06:14:23;;;;;;;6.85;6.32;;;9.30;99.90;;;;;;5031231;28;20108;-62
2021/03/17 06:16:55;;;;;;;6.30;5.80;;;9.50;99.90;;;;;;5032822;28;21298;-62
2021/03/17 06:19:24;;;;;;;6.20;5.50;;;9.40;99.90;;;;;;5032327;28;20036;-62
2021/03/17 06:21:50;;;;;;;5.40;5.00;;;9.40;99.90;;;;;;5038864;28;20044;-62
2021/03/17 06:24:16;;;;;;;5.90;5.25;;;9.40;99.90;;;;;;5032682;28;20025;-63
2021/03/17 06:26:43;;;;;;;6.38;5.57;;;9.50;99.90;;;;;;5036832;28;20029;-62
2021/03/17 06:29:09;;;;;;;5.28;4.65;;;9.50;99.90;;;;;;5032272;28;20029;-62
2021/03/17 06:31:35;;;;;;;5.25;4.85;;;9.50;99.90;;;;;;5042166;28;20029;-62
2021/03/17 06:34:01;;;;;;;5.25;4.88;;;9.40;99.90;;;;;;5039537;28;20025;-63
2021/03/17 06:36:27;;;;;;;5.03;4.60;;;9.50;99.90;;;;;;5031800;28;20032;-63
2021/03/17 06:39:07;;;;;;;6.10;4.88;;;9.50;99.90;;;;;;5030688;28;20025;-62
2021/03/17 06:41:49;;;;;;;5.28;4.80;;;9.50;99.90;;;;;;5031216;28;20048;-63
2021/03/17 06:44:21;;;;;;;5.30;4.80;;;9.40;99.90;;;;;;5031685;28;20501;-62
2021/03/17 06:47:12;;;;;;;4.90;4.50;;;9.50;99.90;;;;;;5038803;28;20032;-62
2021/03/17 06:49:40;;;;;;;5.22;4.78;;;9.60;99.90;;;;;;5047699;28;20029;-62
2021/03/17 06:52:45;;;;;;;5.38;4.88;;;9.70;99.90;;;;;;5041808;28;20496;-63
2021/03/17 06:55:16;;;;;;;5.40;4.90;;;9.60;99.90;;;;;;5021577;28;20117;-62
2021/03/17 06:57:52;;;;;;;4.80;4.45;;;9.60;99.90;;;;;;5023449;28;20033;-62
2021/03/17 07:00:31;;;;;;;5.63;5.13;;;9.70;99.90;;;;;;5033633;28;20648;-63
2021/03/17 07:03:01;;;;;;;5.32;4.82;;;9.70;99.90;;;;;;5048361;28;20029;-62
2021/03/17 07:05:42;;;;;;;5.32;4.82;;;9.60;99.90;;;;;;5041151;28;20054;-61
2021/03/17 07:08:26;;;;;;;5.25;4.68;;;9.60;99.90;;;;;;5049913;28;20083;-62
2021/03/17 07:10:59;;;;;;;5.72;5.32;;;9.70;99.90;;;;;;5036391;28;20501;-62
2021/03/17 07:13:27;;;;;;;5.45;4.95;;;9.80;99.90;;;;;;5030355;28;20013;-62
2021/03/17 07:15:54;;;;;;;4.78;4.38;;;9.90;99.90;;;;;;5035060;28;20164;-63
2021/03/17 07:18:24;;;;;;;5.63;5.22;;;9.90;99.90;;;;;;5027910;28;20033;-62
2021/03/17 07:20:51;;;;;;;5.28;4.82;;;9.80;99.90;;;;;;5031141;28;20029;-62
2021/03/17 07:23:20;;;;;;;5.80;5.30;;;10.00;99.90;;;;;;5029790;28;20493;-62
2021/03/17 07:26:14;;;;;;;5.68;5.22;;;10.00;99.90;;;;;;5034273;28;20033;-62
2021/03/17 07:29:15;;;;;;;6.38;5.22;;;9.90;99.90;;;;;;5027444;28;20545;-62
2021/03/17 07:31:50;;;;;;;5.85;5.38;;;10.00;99.90;;;;;;5033817;28;20461;-62
2021/03/17 07:34:25;;;;;;;6.28;5.78;;;9.90;99.90;;;;;;5028198;28;20508;-63
2021/03/17 07:36:58;;;;;;;5.60;5.10;;;10.00;99.90;;;;;;5028709;28;20083;-61
2021/03/17 07:39:40;;;;;;;6.00;5.60;;;10.10;99.90;;;;;;5032415;28;20025;-62
2021/03/17 07:42:11;;;;;;;6.25;5.85;;;9.90;99.90;;;;;;5033519;28;20083;-62
2021/03/17 07:44:39;;;;;;;8.02;6.60;;;10.00;99.90;;;;;;5029404;28;20037;-63
2021/03/17 07:47:11;;;;;;;6.65;6.10;;;10.00;99.90;;;;;;5030919;28;20029;-63
2021/03/17 07:49:40;;;;;;;7.18;6.47;;;10.10;99.90;;;;;;5029989;28;20029;-62
2021/03/17 07:52:08;;;;;;;7.28;6.57;;;10.10;99.90;;;;;;5028723;28;20025;-62
2021/03/17 07:54:37;;;;;;;8.50;7.43;;;10.10;99.90;;;;;;5031950;28;20029;-62
2021/03/17 07:57:05;;;;;;;7.95;7.07;;;10.40;99.90;;;;;;5040476;28;20035;-62
2021/03/17 07:59:33;;;;;;;7.78;6.88;;;10.40;99.90;;;;;;5046489;28;20029;-62
2021/03/17 08:01:59;;;;;;;7.78;7.10;;;10.30;99.90;;;;;;5041065;28;20378;-62
2021/03/17 08:04:27;;;;;;;8.90;8.07;;;10.60;99.90;;;;;;5046637;28;20566;-62
2021/03/17 08:07:04;;;;;;;7.85;7.10;;;10.50;99.90;;;;;;5040313;28;20057;-62
2021/03/17 08:09:31;;;;;;;8.07;7.38;;;10.50;99.90;;;;;;5045465;28;20490;-62
2021/03/17 08:12:02;;;;;;;9.93;7.57;;;10.50;99.90;;;;;;5038126;28;20083;-62
2021/03/17 08:14:29;;;;;;;7.70;6.60;;;10.80;99.90;;;;;;5030704;28;20021;-62
2021/03/17 08:16:55;;;;;;;7.47;6.75;;;10.90;99.90;;;;;;5041346;28;20021;-62
2021/03/17 08:19:26;;;;;;;7.25;6.35;;;10.80;99.90;;;;;;5046130;28;20608;-62
2021/03/17 08:21:53;;;;;;;6.78;6.32;;;10.90;99.90;;;;;;5040103;28;20040;-62
2021/03/17 08:24:40;;;;;;;7.15;6.55;;;10.90;99.90;;;;;;5046009;28;20025;-63
2021/03/17 08:27:06;;;;;;;7.30;6.38;;;10.90;99.90;;;;;;5040812;28;20029;-62
2021/03/17 08:30:03;;;;;;;7.80;6.97;;;11.00;99.90;;;;;;5045890;28;20083;-62
2021/03/17 08:32:48;;;;;;;;;;;11.20;99.90;;;;;;5035288;28;20068;-61
2021/03/17 08:35:14;;;;;;;6.43;5.82;;;11.30;99.90;;;;;;5038275;28;19909;-62
2021/03/17 08:37:52;;;;;;;6.82;6.03;;;11.20;99.90;;;;;;5029027;28;20482;-62
2021/03/17 08:40:29;;;;;;;7.22;6.47;;;11.10;99.90;;;;;;5038114;28;20029;-62
2021/03/17 08:42:56;;;;;;;6.80;6.03;;;11.10;99.90;;;;;;5026783;28;20450;-62
2021/03/17 08:45:23;;;;;;;10.02;7.15;;;11.00;99.90;;;;;;5029853;28;20462;-62
2021/03/17 08:47:50;;;;;;;7.78;6.65;;;11.00;99.90;;;;;;5030139;28;20040;-62
2021/03/17 08:50:21;;;;;;;8.00;6.78;;;11.00;99.90;;;;;;5038552;28;20045;-62
2021/03/17 08:52:51;;;;;;;6.80;5.80;;;11.10;99.90;;;;;;5044271;28;20540;-62
2021/03/17 08:55:36;;;;;;;6.82;6.22;;;11.10;99.90;;;;;;5041716;28;20030;-62
2021/03/17 08:58:34;;;;;;;8.05;5.80;;;10.90;99.90;;;;;;5046862;28;20103;-62
2021/03/17 09:01:00;;;;;;;6.45;5.57;;;10.70;99.90;;;;;;5024681;28;20457;-62
2021/03/17 09:03:32;;;;;;;8.18;5.45;;;10.70;99.90;;;;;;5049264;28;20021;-62
2021/03/17 09:06:09;;;;;;;5.95;4.80;;;11.10;99.90;;;;;;5037063;28;20157;-62
2021/03/17 09:09:00;;;;;;;5.85;4.75;;;10.90;99.90;;;;;;5043252;28;20101;-62
2021/03/17 09:11:46;;;;;;;4.53;4.13;;;11.20;99.90;;;;;;5029144;28;20095;-62
2021/03/17 09:14:23;;;;;;;4.13;3.83;;;11.40;99.90;;;;;;5037536;28;20052;-61
2021/03/17 09:17:07;;;;;;;8.43;4.00;;;11.20;99.90;;;;;;5029564;28;20044;-62
2021/03/17 09:19:53;;;;;;;4.38;4.07;;;11.60;99.90;;;;;;5029615;28;20029;-61
2021/03/17 09:22:48;;;;;;;4.63;3.95;;;11.60;99.90;;;;;;5027848;28;20025;-62
2021/03/17 09:25:36;;;;;;;4.20;3.63;;;11.60;99.90;;;;;;5030523;28;20056;-62
2021/03/17 09:28:02;;;;;;;5.45;3.53;;;11.10;99.90;;;;;;5027037;28;20033;-62
2021/03/17 09:30:31;;;;;;;5.40;3.88;;;10.90;99.90;;;;;;5035836;28;20580;-62
2021/03/17 09:33:05;;;;;;;4.40;3.55;;;10.80;99.90;;;;;;5045650;28;20025;-62
2021/03/17 09:35:32;;;;;;;3.63;3.25;;;11.30;99.90;;;;;;5040546;28;20521;-61
2021/03/17 09:38:10;;;;;;;5.65;3.55;;;11.20;99.90;;;;;;5020227;28;20483;-61
2021/03/17 09:40:39;;;;;;;4.20;2.92;;;11.30;99.90;;;;;;5033669;28;20049;-62
2021/03/17 09:43:25;;;;;;;4.30;2.70;;;11.30;99.90;;;;;;5041364;28;20104;-62
2021/03/17 09:45:51;;;;;;;5.43;3.33;;;11.50;99.90;;;;;;5033138;28;20083;-62
2021/03/17 09:48:17;;;;;;;5.05;3.05;;;11.80;99.90;;;;;;5028561;28;20112;-62
2021/03/17 09:50:45;;;;;;;3.80;2.80;;;11.90;99.90;;;;;;5036687;28;20038;-62
2021/03/17 09:53:15;;;;;;;3.90;2.97;;;11.90;99.90;;;;;;5050899;28;20120;-62
2021/03/17 09:55:42;;;;;;;2.95;2.65;;;11.60;99.90;;;;;;5043308;28;20037;-62
2021/03/17 09:58:09;;;;;;;5.00;3.40;;;11.50;99.90;;;;;;5053340;28;20384;-62
2021/03/17 10:00:37;;;;;;;6.47;3.17;;;11.40;99.90;;;;;;5046678;28;20057;-62
2021/03/17 10:03:05;;;;;;;4.07;3.00;;;11.60;99.90;;;;;;5052107;28;20039;-62
2021/03/17 10:05:31;;;;;;;4.75;2.40;;;11.20;99.90;;;;;;5047293;28;20284;-62
2021/03/17 10:07:57;;;;;;;5.47;2.78;;;11.30;99.90;;;;;;5049023;28;20028;-63
2021/03/17 10:10:23;;;;;;;5.13;2.92;;;11.70;99.90;;;;;;5040814;28;20533;-62
2021/03/17 10:12:50;;;;;;;6.13;2.80;;;11.80;99.90;;;;;;5033538;28;20091;-61
2021/03/17 10:15:22;;;;;;;5.30;2.30;;;11.50;99.90;;;;;;5036555;28;20033;-61
2021/03/17 10:17:50;;;;;;;3.08;2.60;;;11.90;99.90;;;;;;5047361;28;20493;-61
2021/03/17 10:20:21;;;;;;;4.07;2.10;;;11.40;99.90;;;;;;5044699;28;20029;-61
2021/03/17 10:22:49;;;;;;;4.68;2.42;;;11.20;99.90;;;;;;5050875;28;20029;-61
2021/03/17 10:25:20;;;;;;;5.70;2.47;;;11.70;99.90;;;;;;5041777;28;20029;-61
2021/03/17 10:28:05;;;;;;;5.20;2.78;;;12.00;99.90;;;;;;5046833;28;20032;-61
2021/03/17 10:30:35;;;;;;;6.38;2.60;;;11.80;99.90;;;;;;5041957;28;20088;-61
2021/03/17 10:33:02;;;;;;;12.52;2.80;;;11.50;99.90;;;;;;5048768;28;20021;-61
2021/03/17 10:35:32;;;;;;;6.97;2.10;;;12.10;99.90;;;;;;5041992;28;20064;-61
2021/03/17 10:38:00;;;;;;;7.25;2.50;;;12.20;99.90;;;;;;5048301;28;20024;-61
2021/03/17 10:40:27;;;;;;;8.90;2.50;;;12.10;99.90;;;;;;5042675;28;20041;-61
2021/03/17 10:42:59;;;;;;;7.15;2.22;;;11.60;99.90;;;;;;5044294;28;20018;-62
2021/03/17 10:45:48;;;;;;;4.72;1.60;;;11.40;99.90;;;;;;5036548;28;20033;-61
2021/03/17 10:48:17;;;;;;;7.32;2.58;;;12.00;99.90;;;;;;5034809;28;20056;-61
2021/03/17 10:50:44;;;;;;;5.38;2.10;;;12.40;99.90;;;;;;5035451;28;20794;-62
2021/03/17 10:53:20;;;;;;;7.15;2.45;;;12.80;99.90;;;;;;5049584;28;20378;-62
2021/03/17 10:55:47;;;;;;;5.18;2.13;;;12.30;99.90;;;;;;5039865;28;20037;-62
2021/03/17 10:58:18;;;;;;;7.28;2.47;;;11.80;99.90;;;;;;5035047;28;20593;-62
2021/03/17 11:01:03;;;;;;;7.18;1.95;;;11.30;99.90;;;;;;5035523;28;20098;-62
2021/03/17 11:03:39;;;;;;;7.60;2.22;;;12.10;99.90;;;;;;5011336;28;20022;-62
2021/03/17 11:06:17;;;;;;;6.90;2.30;;;12.60;99.90;;;;;;5035279;28;20457;-61
2021/03/17 11:09:13;;;;;;;11.00;3.25;;;11.70;99.90;;;;;;5050648;28;20468;-61
2021/03/17 11:11:49;;;;;;;6.45;2.45;;;12.60;99.90;;;;;;5026764;28;20631;-62
2021/03/17 11:14:35;;;;;;;6.88;2.20;;;12.50;99.90;;;;;;5030890;28;20037;-62
2021/03/17 11:17:08;;;;;;;8.77;2.63;;;12.20;99.90;;;;;;5030852;28;20025;-62
2021/03/17 11:19:33;;;;;;;7.50;2.20;;;11.90;99.90;;;;;;5031081;28;20033;-62
2021/03/17 11:21:59;;;;;;;8.55;2.13;;;12.20;99.90;;;;;;5030384;28;20025;-62
2021/03/17 11:24:25;;;;;;;7.82;2.20;;;12.00;99.90;;;;;;5032730;28;20037;-62
2021/03/17 11:26:51;;;;;;;6.78;2.22;;;12.00;99.90;;;;;;5030931;28;20490;-62
2021/03/17 11:29:24;;;;;;;3.90;1.83;;;12.00;99.90;;;;;;5039402;28;20048;-62
2021/03/17 11:31:55;;;;;;;9.10;1.90;;;11.90;99.90;;;;;;5035524;28;20021;-62
2021/03/17 11:34:22;;;;;;;4.93;1.67;;;12.00;99.90;;;;;;5034517;28;20021;-61
2021/03/17 11:36:49;;;;;;;5.70;2.00;;;12.10;99.90;;;;;;5030657;28;20034;-62
2021/03/17 11:39:16;;;;;;;5.05;2.03;;;11.80;99.90;;;;;;5030153;28;20035;-62
2021/03/17 11:41:44;;;;;;;5.93;1.98;;;12.20;99.90;;;;;;5031671;28;20049;-62
2021/03/17 11:44:14;;;;;;;5.03;2.05;;;12.20;99.90;;;;;;5030058;28;20143;-62
2021/03/17 11:46:39;;;;;;;7.32;2.65;;;11.80;99.90;;;;;;5030065;28;20391;-62
2021/03/17 11:49:05;;;;;;;2.88;1.75;;;11.60;99.90;;;;;;5029410;28;20087;-62
2021/03/17 11:51:31;;;;;;;6.75;1.90;;;11.90;99.90;;;;;;5033616;28;20036;-62
2021/03/17 11:53:56;;;;;;;6.72;1.63;;;12.40;99.90;;;;;;5030030;28;20074;-62
2021/03/17 11:56:22;;;;;;;4.13;1.80;;;12.30;99.90;;;;;;5035917;28;20032;-62
2021/03/17 11:58:49;;;;;;;7.20;2.08;;;12.00;99.90;;;;;;5050032;28;20482;-62
2021/03/17 12:01:15;;;;;;;8.40;2.60;;;11.90;99.90;;;;;;5037438;28;20038;-62
2021/03/17 12:03:41;;;;;;;8.88;2.55;;;11.80;99.90;;;;;;5048645;28;20060;-62
2021/03/17 12:06:08;;;;;;;7.10;2.13;;;11.70;99.90;;;;;;5035499;28;20568;-62
2021/03/17 12:08:35;;;;;;;7.78;2.00;;;11.70;99.90;;;;;;5049287;28;20025;-62
2021/03/17 12:11:01;;;;;;;7.72;2.13;;;11.80;99.90;;;;;;5045320;28;20074;-62
2021/03/17 12:13:27;;;;;;;6.40;2.00;;;12.80;99.90;;;;;;5029723;28;20115;-63
2021/03/17 12:15:53;;;;;;;5.90;2.08;;;12.30;99.90;;;;;;5034460;28;20489;-63
2021/03/17 12:18:19;;;;;;;8.32;2.17;;;11.70;99.90;;;;;;5049404;28;20025;-63
2021/03/17 12:20:45;;;;;;;5.80;1.80;;;11.50;99.90;;;;;;5038222;28;20530;-63
2021/03/17 12:23:13;;;;;;;7.63;2.38;;;11.70;99.90;;;;;;5035704;28;20440;-63
2021/03/17 12:25:39;;;;;;;7.38;2.20;;;12.10;99.90;;;;;;5034999;28;20028;-63
2021/03/17 12:28:05;;;;;;;6.72;1.98;;;12.10;99.90;;;;;;5046096;28;20033;-63
2021/03/17 12:30:31;;;;;;;8.25;2.13;;;12.60;99.90;;;;;;5034142;28;20025;-63
2021/03/17 12:32:56;;;;;;;3.90;1.90;;;13.50;99.90;;;;;;5029498;28;20493;-63
2021/03/17 12:35:24;;;;;;;8.65;1.98;;;13.10;99.90;;;;;;5030972;28;20028;-63
2021/03/17 12:37:51;;;;;;;7.72;2.20;;;12.10;99.90;;;;;;5028241;28;20531;-63
2021/03/17 12:40:21;;;;;;;4.68;1.83;;;12.00;99.90;;;;;;5029573;28;20064;-63
2021/03/17 12:42:48;;;;;;;8.07;1.70;;;11.90;99.90;;;;;;5027663;28;20025;-63
2021/03/17 12:45:16;;;;;;;8.02;2.00;;;11.60;99.90;;;;;;5034632;28;20033;-63
2021/03/17 12:47:42;;;;;;;4.78;2.00;;;11.40;99.90;;;;;;5034641;28;20032;-63
2021/03/17 12:50:11;;;;;;;3.72;1.40;;;12.20;99.90;;;;;;5036120;28;20025;-63
2021/03/17 12:52:37;;;;;;;7.35;1.80;;;13.20;99.90;;;;;;5034229;28;20398;-63
2021/03/17 12:55:07;;;;;;;5.40;1.88;;;13.80;99.90;;;;;;5034207;28;20493;-63
2021/03/17 12:57:34;;;;;;;10.02;1.92;;;13.10;99.90;;;;;;5042061;28;20052;-63
2021/03/17 13:00:00;;;;;;;5.75;1.90;;;12.60;99.90;;;;;;5040464;28;20024;-63
2021/03/17 13:02:26;;;;;;;7.25;1.85;;;12.60;99.90;;;;;;5037080;28;20025;-63
2021/03/17 13:04:54;;;;;;;6.07;2.13;;;13.10;99.90;;;;;;5030748;28;20045;-63
2021/03/17 13:07:20;;;;;;;5.22;2.05;;;13.70;99.90;;;;;;5031943;28;20557;-63